sensor_id;sensor_type;location;lat;lon;timestamp;P1;durP1;ratioP1;P2;durP2;ratioP2
22829;SDS011;11581;51.250;6.778;2024-01-07T00:02:06;17.63;;;11.80;;
22829;SDS011;11581;51.250;6.778;2024-01-07T00:04:33;17.35;;;11.73;;
22829;SDS011;11581;51.250;6.778;2024-01-07T00:07:00;18.40;;;11.52;;
22829;SDS011;11581;51.250;6.778;2024-01-07T00:09:28;15.30;;;10.98;;
22829;SDS011;11581;51.250;6.778;2024-01-07T00:11:55;18.67;;;11.15;;
22829;SDS011;11581;51.250;6.778;2024-01-07T00:14:21;17.08;;;11.48;;
22829;SDS011;11581;51.250;6.778;2024-01-07T00:16:48;19.25;;;11.50;;
22829;SDS011;11581;51.250;6.778;2024-01-07T00:19:15;18.08;;;11.77;;
22829;SDS011;11581;51.250;6.778;2024-01-07T00:21:42;20.25;;;12.25;;
22829;SDS011;11581;51.250;6.778;2024-01-07T00:24:09;17.45;;;11.30;;
22829;SDS011;11581;51.250;6.778;2024-01-07T00:26:37;16.17;;;10.90;;
22829;SDS011;11581;51.250;6.778;2024-01-07T00:29:03;17.20;;;11.55;;
22829;SDS011;11581;51.250;6.778;2024-01-07T00:31:33;17.65;;;11.77;;
22829;SDS011;11581;51.250;6.778;2024-01-07T00:34:00;19.95;;;12.15;;
22829;SDS011;11581;51.250;6.778;2024-01-07T00:36:26;16.10;;;11.10;;
22829;SDS011;11581;51.250;6.778;2024-01-07T00:38:53;15.73;;;10.95;;
22829;SDS011;11581;51.250;6.778;2024-01-07T00:41:19;17.90;;;11.68;;
22829;SDS011;11581;51.250;6.778;2024-01-07T00:43:47;16.63;;;10.88;;
22829;SDS011;11581;51.250;6.778;2024-01-07T00:46:14;16.30;;;11.13;;
22829;SDS011;11581;51.250;6.778;2024-01-07T00:48:41;15.13;;;10.93;;
22829;SDS011;11581;51.250;6.778;2024-01-07T00:51:06;13.60;;;10.15;;
22829;SDS011;11581;51.250;6.778;2024-01-07T00:53:33;16.20;;;11.60;;
22829;SDS011;11581;51.250;6.778;2024-01-07T00:56:00;15.98;;;11.00;;
22829;SDS011;11581;51.250;6.778;2024-01-07T00:58:26;14.98;;;10.63;;
22829;SDS011;11581;51.250;6.778;2024-01-07T01:00:54;16.80;;;10.27;;
22829;SDS011;11581;51.250;6.778;2024-01-07T01:03:21;16.80;;;10.02;;
22829;SDS011;11581;51.250;6.778;2024-01-07T01:05:48;15.75;;;10.20;;
22829;SDS011;11581;51.250;6.778;2024-01-07T01:08:15;13.27;;;10.00;;
22829;SDS011;11581;51.250;6.778;2024-01-07T01:10:42;15.10;;;10.82;;
22829;SDS011;11581;51.250;6.778;2024-01-07T01:13:08;15.43;;;10.73;;
22829;SDS011;11581;51.250;6.778;2024-01-07T01:15:36;14.45;;;10.60;;
22829;SDS011;11581;51.250;6.778;2024-01-07T01:18:04;15.35;;;10.52;;
22829;SDS011;11581;51.250;6.778;2024-01-07T01:20:31;15.98;;;10.90;;
22829;SDS011;11581;51.250;6.778;2024-01-07T01:22:58;14.77;;;11.07;;
22829;SDS011;11581;51.250;6.778;2024-01-07T01:25:24;16.08;;;10.38;;
22829;SDS011;11581;51.250;6.778;2024-01-07T01:27:52;14.65;;;10.55;;
22829;SDS011;11581;51.250;6.778;2024-01-07T01:30:19;15.50;;;10.75;;
22829;SDS011;11581;51.250;6.778;2024-01-07T01:32:45;15.32;;;10.40;;
22829;SDS011;11581;51.250;6.778;2024-01-07T01:35:14;16.65;;;10.73;;
22829;SDS011;11581;51.250;6.778;2024-01-07T01:37:40;15.30;;;10.93;;
22829;SDS011;11581;51.250;6.778;2024-01-07T01:40:08;14.45;;;10.50;;
22829;SDS011;11581;51.250;6.778;2024-01-07T01:42:35;14.70;;;10.40;;
22829;SDS011;11581;51.250;6.778;2024-01-07T01:45:02;12.25;;;9.52;;
22829;SDS011;11581;51.250;6.778;2024-01-07T01:47:29;13.35;;;9.52;;
22829;SDS011;11581;51.250;6.778;2024-01-07T01:49:57;13.65;;;9.20;;
22829;SDS011;11581;51.250;6.778;2024-01-07T01:52:26;14.43;;;8.90;;
22829;SDS011;11581;51.250;6.778;2024-01-07T01:54:53;12.57;;;8.75;;
22829;SDS011;11581;51.250;6.778;2024-01-07T01:57:21;14.60;;;8.95;;
22829;SDS011;11581;51.250;6.778;2024-01-07T01:59:50;12.27;;;9.02;;
22829;SDS011;11581;51.250;6.778;2024-01-07T02:02:18;12.18;;;8.57;;
22829;SDS011;11581;51.250;6.778;2024-01-07T02:04:45;14.15;;;9.57;;
22829;SDS011;11581;51.250;6.778;2024-01-07T02:07:12;14.00;;;9.60;;
22829;SDS011;11581;51.250;6.778;2024-01-07T02:09:42;14.73;;;9.55;;
22829;SDS011;11581;51.250;6.778;2024-01-07T02:12:09;12.55;;;9.30;;
22829;SDS011;11581;51.250;6.778;2024-01-07T02:14:37;13.07;;;8.82;;
22829;SDS011;11581;51.250;6.778;2024-01-07T02:17:04;12.20;;;8.48;;
22829;SDS011;11581;51.250;6.778;2024-01-07T02:19:31;11.90;;;8.63;;
22829;SDS011;11581;51.250;6.778;2024-01-07T02:22:01;11.57;;;7.82;;
22829;SDS011;11581;51.250;6.778;2024-01-07T02:24:29;13.48;;;9.40;;
22829;SDS011;11581;51.250;6.778;2024-01-07T02:26:57;11.52;;;7.85;;
22829;SDS011;11581;51.250;6.778;2024-01-07T02:29:27;13.82;;;8.70;;
22829;SDS011;11581;51.250;6.778;2024-01-07T02:31:54;14.88;;;8.13;;
22829;SDS011;11581;51.250;6.778;2024-01-07T02:34:20;12.43;;;8.02;;
22829;SDS011;11581;51.250;6.778;2024-01-07T02:36:47;12.77;;;8.77;;
22829;SDS011;11581;51.250;6.778;2024-01-07T02:39:14;12.40;;;8.60;;
22829;SDS011;11581;51.250;6.778;2024-01-07T02:41:42;12.05;;;8.48;;
22829;SDS011;11581;51.250;6.778;2024-01-07T02:44:08;11.32;;;8.10;;
22829;SDS011;11581;51.250;6.778;2024-01-07T02:46:35;13.40;;;8.60;;
22829;SDS011;11581;51.250;6.778;2024-01-07T02:49:02;13.75;;;8.32;;
22829;SDS011;11581;51.250;6.778;2024-01-07T02:51:28;12.27;;;7.88;;
22829;SDS011;11581;51.250;6.778;2024-01-07T02:53:55;12.63;;;8.55;;
22829;SDS011;11581;51.250;6.778;2024-01-07T02:56:22;13.68;;;8.73;;
22829;SDS011;11581;51.250;6.778;2024-01-07T02:58:49;14.88;;;9.13;;
22829;SDS011;11581;51.250;6.778;2024-01-07T03:01:16;13.23;;;9.52;;
22829;SDS011;11581;51.250;6.778;2024-01-07T03:03:43;14.20;;;9.30;;
22829;SDS011;11581;51.250;6.778;2024-01-07T03:06:09;13.75;;;8.35;;
22829;SDS011;11581;51.250;6.778;2024-01-07T03:08:36;13.98;;;9.40;;
22829;SDS011;11581;51.250;6.778;2024-01-07T03:11:04;14.38;;;9.55;;
22829;SDS011;11581;51.250;6.778;2024-01-07T03:13:31;16.40;;;9.85;;
22829;SDS011;11581;51.250;6.778;2024-01-07T03:15:59;13.65;;;8.18;;
22829;SDS011;11581;51.250;6.778;2024-01-07T03:18:26;15.68;;;8.57;;
22829;SDS011;11581;51.250;6.778;2024-01-07T03:20:53;13.95;;;9.13;;
22829;SDS011;11581;51.250;6.778;2024-01-07T03:23:20;14.50;;;9.00;;
22829;SDS011;11581;51.250;6.778;2024-01-07T03:25:46;15.00;;;9.43;;
22829;SDS011;11581;51.250;6.778;2024-01-07T03:28:13;15.15;;;9.48;;
22829;SDS011;11581;51.250;6.778;2024-01-07T03:30:40;15.38;;;10.10;;
22829;SDS011;11581;51.250;6.778;2024-01-07T03:33:08;15.48;;;9.68;;
22829;SDS011;11581;51.250;6.778;2024-01-07T03:35:35;15.52;;;10.02;;
22829;SDS011;11581;51.250;6.778;2024-01-07T03:38:02;16.20;;;9.88;;
22829;SDS011;11581;51.250;6.778;2024-01-07T03:40:29;13.55;;;9.77;;
22829;SDS011;11581;51.250;6.778;2024-01-07T03:42:55;14.60;;;9.65;;
22829;SDS011;11581;51.250;6.778;2024-01-07T03:45:22;15.05;;;10.45;;
22829;SDS011;11581;51.250;6.778;2024-01-07T03:47:49;12.68;;;8.70;;
22829;SDS011;11581;51.250;6.778;2024-01-07T03:50:17;13.20;;;8.55;;
22829;SDS011;11581;51.250;6.778;2024-01-07T03:52:43;13.07;;;8.45;;
22829;SDS011;11581;51.250;6.778;2024-01-07T03:55:10;13.10;;;8.35;;
22829;SDS011;11581;51.250;6.778;2024-01-07T03:57:36;13.77;;;8.60;;
22829;SDS011;11581;51.250;6.778;2024-01-07T04:00:04;13.90;;;9.52;;
22829;SDS011;11581;51.250;6.778;2024-01-07T04:02:31;11.85;;;7.70;;
22829;SDS011;11581;51.250;6.778;2024-01-07T04:04:58;15.65;;;8.68;;
22829;SDS011;11581;51.250;6.778;2024-01-07T04:07:26;13.95;;;9.35;;
22829;SDS011;11581;51.250;6.778;2024-01-07T04:09:52;11.45;;;7.65;;
22829;SDS011;11581;51.250;6.778;2024-01-07T04:12:19;12.23;;;8.57;;
22829;SDS011;11581;51.250;6.778;2024-01-07T04:14:46;12.07;;;8.20;;
22829;SDS011;11581;51.250;6.778;2024-01-07T04:17:12;11.45;;;8.07;;
22829;SDS011;11581;51.250;6.778;2024-01-07T04:19:39;13.90;;;8.70;;
22829;SDS011;11581;51.250;6.778;2024-01-07T04:22:05;11.45;;;8.48;;
22829;SDS011;11581;51.250;6.778;2024-01-07T04:24:33;14.18;;;9.43;;
22829;SDS011;11581;51.250;6.778;2024-01-07T04:27:00;14.18;;;8.65;;
22829;SDS011;11581;51.250;6.778;2024-01-07T04:29:27;15.18;;;9.15;;
22829;SDS011;11581;51.250;6.778;2024-01-07T04:31:53;15.52;;;10.20;;
22829;SDS011;11581;51.250;6.778;2024-01-07T04:34:20;16.45;;;9.23;;
22829;SDS011;11581;51.250;6.778;2024-01-07T04:36:47;12.65;;;8.93;;
22829;SDS011;11581;51.250;6.778;2024-01-07T04:39:14;13.45;;;8.55;;
22829;SDS011;11581;51.250;6.778;2024-01-07T04:41:42;15.15;;;9.25;;
22829;SDS011;11581;51.250;6.778;2024-01-07T04:44:09;13.82;;;8.52;;
22829;SDS011;11581;51.250;6.778;2024-01-07T04:46:37;12.95;;;8.80;;
22829;SDS011;11581;51.250;6.778;2024-01-07T04:49:05;11.25;;;8.48;;
22829;SDS011;11581;51.250;6.778;2024-01-07T04:51:31;13.40;;;8.77;;
22829;SDS011;11581;51.250;6.778;2024-01-07T04:53:58;13.32;;;8.80;;
22829;SDS011;11581;51.250;6.778;2024-01-07T04:56:25;13.35;;;8.45;;
22829;SDS011;11581;51.250;6.778;2024-01-07T04:58:53;13.65;;;9.05;;
22829;SDS011;11581;51.250;6.778;2024-01-07T05:01:19;15.52;;;9.40;;
22829;SDS011;11581;51.250;6.778;2024-01-07T05:03:46;13.98;;;9.73;;
22829;SDS011;11581;51.250;6.778;2024-01-07T05:06:13;15.00;;;9.25;;
22829;SDS011;11581;51.250;6.778;2024-01-07T05:08:40;11.35;;;8.25;;
22829;SDS011;11581;51.250;6.778;2024-01-07T05:11:06;14.52;;;9.45;;
22829;SDS011;11581;51.250;6.778;2024-01-07T05:13:33;13.50;;;9.13;;
22829;SDS011;11581;51.250;6.778;2024-01-07T05:16:02;13.13;;;8.75;;
22829;SDS011;11581;51.250;6.778;2024-01-07T05:18:29;12.77;;;8.80;;
22829;SDS011;11581;51.250;6.778;2024-01-07T05:20:55;13.63;;;8.52;;
22829;SDS011;11581;51.250;6.778;2024-01-07T05:23:22;13.75;;;9.60;;
22829;SDS011;11581;51.250;6.778;2024-01-07T05:25:49;13.93;;;8.75;;
22829;SDS011;11581;51.250;6.778;2024-01-07T05:28:16;13.95;;;8.85;;
22829;SDS011;11581;51.250;6.778;2024-01-07T05:30:44;12.07;;;8.60;;
22829;SDS011;11581;51.250;6.778;2024-01-07T05:33:12;12.15;;;8.85;;
22829;SDS011;11581;51.250;6.778;2024-01-07T05:35:39;13.68;;;8.85;;
22829;SDS011;11581;51.250;6.778;2024-01-07T05:38:05;12.98;;;8.73;;
22829;SDS011;11581;51.250;6.778;2024-01-07T05:40:32;12.45;;;8.77;;
22829;SDS011;11581;51.250;6.778;2024-01-07T05:42:58;12.30;;;8.85;;
22829;SDS011;11581;51.250;6.778;2024-01-07T05:45:25;11.35;;;8.27;;
22829;SDS011;11581;51.250;6.778;2024-01-07T05:47:52;13.02;;;8.43;;
22829;SDS011;11581;51.250;6.778;2024-01-07T05:50:20;12.30;;;8.35;;
22829;SDS011;11581;51.250;6.778;2024-01-07T05:52:47;12.05;;;8.02;;
22829;SDS011;11581;51.250;6.778;2024-01-07T05:55:13;10.90;;;7.78;;
22829;SDS011;11581;51.250;6.778;2024-01-07T05:57:40;13.45;;;8.30;;
22829;SDS011;11581;51.250;6.778;2024-01-07T06:00:07;10.18;;;7.35;;
22829;SDS011;11581;51.250;6.778;2024-01-07T06:02:38;10.98;;;7.38;;
22829;SDS011;11581;51.250;6.778;2024-01-07T06:05:05;12.35;;;7.78;;
22829;SDS011;11581;51.250;6.778;2024-01-07T06:07:33;12.23;;;7.80;;
22829;SDS011;11581;51.250;6.778;2024-01-07T06:10:00;11.73;;;7.85;;
22829;SDS011;11581;51.250;6.778;2024-01-07T06:12:27;10.57;;;7.72;;
22829;SDS011;11581;51.250;6.778;2024-01-07T06:14:54;12.38;;;8.38;;
22829;SDS011;11581;51.250;6.778;2024-01-07T06:17:20;11.77;;;8.32;;
22829;SDS011;11581;51.250;6.778;2024-01-07T06:19:47;12.90;;;8.35;;
22829;SDS011;11581;51.250;6.778;2024-01-07T06:22:14;12.90;;;8.35;;
22829;SDS011;11581;51.250;6.778;2024-01-07T06:24:42;13.00;;;8.55;;
22829;SDS011;11581;51.250;6.778;2024-01-07T06:27:08;13.07;;;8.88;;
22829;SDS011;11581;51.250;6.778;2024-01-07T06:29:37;12.88;;;8.10;;
22829;SDS011;11581;51.250;6.778;2024-01-07T06:32:03;15.10;;;9.75;;
22829;SDS011;11581;51.250;6.778;2024-01-07T06:34:30;12.35;;;8.95;;
22829;SDS011;11581;51.250;6.778;2024-01-07T06:36:58;15.80;;;9.10;;
22829;SDS011;11581;51.250;6.778;2024-01-07T06:39:25;11.80;;;7.82;;
22829;SDS011;11581;51.250;6.778;2024-01-07T06:41:54;12.55;;;7.93;;
22829;SDS011;11581;51.250;6.778;2024-01-07T06:44:21;14.45;;;8.70;;
22829;SDS011;11581;51.250;6.778;2024-01-07T06:46:47;12.52;;;8.55;;
22829;SDS011;11581;51.250;6.778;2024-01-07T06:49:14;12.65;;;8.60;;
22829;SDS011;11581;51.250;6.778;2024-01-07T06:51:40;13.50;;;9.30;;
22829;SDS011;11581;51.250;6.778;2024-01-07T06:54:07;12.45;;;8.35;;
22829;SDS011;11581;51.250;6.778;2024-01-07T06:56:34;13.63;;;9.00;;
22829;SDS011;11581;51.250;6.778;2024-01-07T06:59:02;14.80;;;9.13;;
22829;SDS011;11581;51.250;6.778;2024-01-07T07:01:28;13.43;;;9.73;;
22829;SDS011;11581;51.250;6.778;2024-01-07T07:03:55;14.05;;;9.70;;
22829;SDS011;11581;51.250;6.778;2024-01-07T07:06:21;14.55;;;9.48;;
22829;SDS011;11581;51.250;6.778;2024-01-07T07:08:49;13.15;;;8.90;;
22829;SDS011;11581;51.250;6.778;2024-01-07T07:11:16;15.70;;;8.98;;
22829;SDS011;11581;51.250;6.778;2024-01-07T07:13:42;13.82;;;9.15;;
22829;SDS011;11581;51.250;6.778;2024-01-07T07:16:10;13.65;;;9.50;;
22829;SDS011;11581;51.250;6.778;2024-01-07T07:18:37;14.15;;;9.60;;
22829;SDS011;11581;51.250;6.778;2024-01-07T07:21:04;14.82;;;9.70;;
22829;SDS011;11581;51.250;6.778;2024-01-07T07:23:30;14.35;;;10.15;;
22829;SDS011;11581;51.250;6.778;2024-01-07T07:25:57;14.18;;;9.13;;
22829;SDS011;11581;51.250;6.778;2024-01-07T07:28:24;13.25;;;9.73;;
22829;SDS011;11581;51.250;6.778;2024-01-07T07:30:51;14.20;;;9.50;;
22829;SDS011;11581;51.250;6.778;2024-01-07T07:33:20;15.25;;;10.35;;
22829;SDS011;11581;51.250;6.778;2024-01-07T07:35:46;14.40;;;9.50;;
22829;SDS011;11581;51.250;6.778;2024-01-07T07:38:13;16.13;;;10.35;;
22829;SDS011;11581;51.250;6.778;2024-01-07T07:40:39;16.48;;;9.45;;
22829;SDS011;11581;51.250;6.778;2024-01-07T07:43:07;14.65;;;9.38;;
22829;SDS011;11581;51.250;6.778;2024-01-07T07:45:33;14.93;;;10.38;;
22829;SDS011;11581;51.250;6.778;2024-01-07T07:48:00;15.75;;;10.80;;
22829;SDS011;11581;51.250;6.778;2024-01-07T07:50:28;16.55;;;10.60;;
22829;SDS011;11581;51.250;6.778;2024-01-07T07:52:55;15.82;;;10.50;;
22829;SDS011;11581;51.250;6.778;2024-01-07T07:55:21;14.18;;;9.50;;
22829;SDS011;11581;51.250;6.778;2024-01-07T07:57:48;17.13;;;11.05;;
22829;SDS011;11581;51.250;6.778;2024-01-07T08:00:17;17.10;;;10.18;;
22829;SDS011;11581;51.250;6.778;2024-01-07T08:02:43;21.48;;;11.25;;
22829;SDS011;11581;51.250;6.778;2024-01-07T08:05:10;17.13;;;11.57;;
22829;SDS011;11581;51.250;6.778;2024-01-07T08:07:38;19.45;;;10.93;;
22829;SDS011;11581;51.250;6.778;2024-01-07T08:10:06;17.00;;;11.77;;
22829;SDS011;11581;51.250;6.778;2024-01-07T08:12:34;19.38;;;11.57;;
22829;SDS011;11581;51.250;6.778;2024-01-07T08:15:00;19.42;;;11.45;;
22829;SDS011;11581;51.250;6.778;2024-01-07T08:17:27;20.27;;;11.73;;
22829;SDS011;11581;51.250;6.778;2024-01-07T08:19:54;17.23;;;11.23;;
22829;SDS011;11581;51.250;6.778;2024-01-07T08:22:21;17.38;;;11.20;;
22829;SDS011;11581;51.250;6.778;2024-01-07T08:24:49;17.83;;;12.00;;
22829;SDS011;11581;51.250;6.778;2024-01-07T08:27:16;18.08;;;11.18;;
22829;SDS011;11581;51.250;6.778;2024-01-07T08:29:43;17.05;;;11.65;;
22829;SDS011;11581;51.250;6.778;2024-01-07T08:32:10;18.75;;;11.68;;
22829;SDS011;11581;51.250;6.778;2024-01-07T08:34:37;18.00;;;11.57;;
22829;SDS011;11581;51.250;6.778;2024-01-07T08:37:04;16.90;;;11.35;;
22829;SDS011;11581;51.250;6.778;2024-01-07T08:39:30;15.43;;;10.55;;
22829;SDS011;11581;51.250;6.778;2024-01-07T08:41:58;16.05;;;9.85;;
22829;SDS011;11581;51.250;6.778;2024-01-07T08:44:25;16.73;;;9.90;;
22829;SDS011;11581;51.250;6.778;2024-01-07T08:46:52;15.40;;;9.98;;
22829;SDS011;11581;51.250;6.778;2024-01-07T08:49:18;14.90;;;9.95;;
22829;SDS011;11581;51.250;6.778;2024-01-07T08:51:45;14.77;;;9.32;;
22829;SDS011;11581;51.250;6.778;2024-01-07T08:54:12;12.82;;;8.70;;
22829;SDS011;11581;51.250;6.778;2024-01-07T08:56:38;12.07;;;8.45;;
22829;SDS011;11581;51.250;6.778;2024-01-07T08:59:06;10.77;;;7.93;;
22829;SDS011;11581;51.250;6.778;2024-01-07T09:01:33;12.63;;;8.13;;
22829;SDS011;11581;51.250;6.778;2024-01-07T09:04:00;13.00;;;8.10;;
22829;SDS011;11581;51.250;6.778;2024-01-07T09:06:26;14.02;;;8.98;;
22829;SDS011;11581;51.250;6.778;2024-01-07T09:08:53;12.63;;;8.10;;
22829;SDS011;11581;51.250;6.778;2024-01-07T09:11:19;10.52;;;7.82;;
22829;SDS011;11581;51.250;6.778;2024-01-07T09:13:46;11.57;;;8.05;;
22829;SDS011;11581;51.250;6.778;2024-01-07T09:16:16;10.95;;;7.90;;
22829;SDS011;11581;51.250;6.778;2024-01-07T09:18:43;13.82;;;8.57;;
22829;SDS011;11581;51.250;6.778;2024-01-07T09:21:10;11.20;;;7.88;;
22829;SDS011;11581;51.250;6.778;2024-01-07T09:23:36;12.48;;;7.88;;
22829;SDS011;11581;51.250;6.778;2024-01-07T09:26:03;12.15;;;7.25;;
22829;SDS011;11581;51.250;6.778;2024-01-07T09:28:30;10.68;;;7.20;;
22829;SDS011;11581;51.250;6.778;2024-01-07T09:30:56;10.18;;;7.28;;
22829;SDS011;11581;51.250;6.778;2024-01-07T09:33:24;11.52;;;7.07;;
22829;SDS011;11581;51.250;6.778;2024-01-07T09:35:51;11.52;;;6.85;;
22829;SDS011;11581;51.250;6.778;2024-01-07T09:38:19;18.55;;;10.68;;
22829;SDS011;11581;51.250;6.778;2024-01-07T09:40:45;12.10;;;8.13;;
22829;SDS011;11581;51.250;6.778;2024-01-07T09:43:12;11.38;;;7.72;;
22829;SDS011;11581;51.250;6.778;2024-01-07T09:45:39;11.32;;;7.13;;
22829;SDS011;11581;51.250;6.778;2024-01-07T09:48:08;12.70;;;7.35;;
22829;SDS011;11581;51.250;6.778;2024-01-07T09:50:36;11.40;;;7.40;;
22829;SDS011;11581;51.250;6.778;2024-01-07T09:53:03;12.88;;;7.72;;
22829;SDS011;11581;51.250;6.778;2024-01-07T09:55:31;13.55;;;7.57;;
22829;SDS011;11581;51.250;6.778;2024-01-07T09:57:59;12.27;;;8.48;;
22829;SDS011;11581;51.250;6.778;2024-01-07T10:00:26;11.38;;;7.90;;
22829;SDS011;11581;51.250;6.778;2024-01-07T10:02:54;10.60;;;7.40;;
22829;SDS011;11581;51.250;6.778;2024-01-07T10:05:20;11.55;;;7.90;;
22829;SDS011;11581;51.250;6.778;2024-01-07T10:07:48;13.82;;;8.25;;
22829;SDS011;11581;51.250;6.778;2024-01-07T10:10:15;12.55;;;8.45;;
22829;SDS011;11581;51.250;6.778;2024-01-07T10:12:43;10.88;;;7.50;;
22829;SDS011;11581;51.250;6.778;2024-01-07T10:15:11;10.95;;;7.80;;
22829;SDS011;11581;51.250;6.778;2024-01-07T10:17:37;10.57;;;7.63;;
22829;SDS011;11581;51.250;6.778;2024-01-07T10:20:05;12.50;;;7.80;;
22829;SDS011;11581;51.250;6.778;2024-01-07T10:22:35;10.82;;;7.53;;
22829;SDS011;11581;51.250;6.778;2024-01-07T10:25:03;10.90;;;7.97;;
22829;SDS011;11581;51.250;6.778;2024-01-07T10:27:33;11.57;;;7.63;;
22829;SDS011;11581;51.250;6.778;2024-01-07T10:30:00;11.88;;;8.05;;
22829;SDS011;11581;51.250;6.778;2024-01-07T10:32:28;9.65;;;7.63;;
22829;SDS011;11581;51.250;6.778;2024-01-07T10:34:56;9.95;;;7.63;;
22829;SDS011;11581;51.250;6.778;2024-01-07T10:37:27;9.85;;;7.15;;
22829;SDS011;11581;51.250;6.778;2024-01-07T10:39:54;11.98;;;8.02;;
22829;SDS011;11581;51.250;6.778;2024-01-07T10:42:27;10.07;;;6.85;;
22829;SDS011;11581;51.250;6.778;2024-01-07T10:44:56;9.75;;;6.32;;
22829;SDS011;11581;51.250;6.778;2024-01-07T10:47:22;10.27;;;7.05;;
22829;SDS011;11581;51.250;6.778;2024-01-07T10:49:52;10.77;;;7.00;;
22829;SDS011;11581;51.250;6.778;2024-01-07T10:52:21;11.05;;;7.10;;
22829;SDS011;11581;51.250;6.778;2024-01-07T10:54:48;9.95;;;6.68;;
22829;SDS011;11581;51.250;6.778;2024-01-07T10:57:18;10.48;;;6.60;;
22829;SDS011;11581;51.250;6.778;2024-01-07T10:59:52;10.55;;;6.35;;
22829;SDS011;11581;51.250;6.778;2024-01-07T11:02:19;9.20;;;6.25;;
22829;SDS011;11581;51.250;6.778;2024-01-07T11:04:50;10.57;;;6.40;;
22829;SDS011;11581;51.250;6.778;2024-01-07T11:07:27;8.85;;;5.75;;
22829;SDS011;11581;51.250;6.778;2024-01-07T11:10:04;8.73;;;5.75;;
22829;SDS011;11581;51.250;6.778;2024-01-07T11:12:36;8.38;;;5.95;;
22829;SDS011;11581;51.250;6.778;2024-01-07T11:15:04;9.50;;;5.38;;
22829;SDS011;11581;51.250;6.778;2024-01-07T11:17:41;10.55;;;5.78;;
22829;SDS011;11581;51.250;6.778;2024-01-07T11:20:12;7.50;;;5.65;;
22829;SDS011;11581;51.250;6.778;2024-01-07T11:22:47;7.90;;;4.88;;
22829;SDS011;11581;51.250;6.778;2024-01-07T11:25:29;9.90;;;5.88;;
22829;SDS011;11581;51.250;6.778;2024-01-07T11:27:57;9.45;;;5.63;;
22829;SDS011;11581;51.250;6.778;2024-01-07T11:30:25;8.75;;;5.45;;
22829;SDS011;11581;51.250;6.778;2024-01-07T11:32:56;8.45;;;5.55;;
22829;SDS011;11581;51.250;6.778;2024-01-07T11:38:21;8.98;;;6.40;;
22829;SDS011;11581;51.250;6.778;2024-01-07T11:40:47;8.80;;;6.35;;
22829;SDS011;11581;51.250;6.778;2024-01-07T11:43:15;9.52;;;6.55;;
22829;SDS011;11581;51.250;6.778;2024-01-07T11:45:43;9.25;;;6.13;;
22829;SDS011;11581;51.250;6.778;2024-01-07T11:48:10;9.52;;;5.90;;
22829;SDS011;11581;51.250;6.778;2024-01-07T11:50:37;11.73;;;8.00;;
22829;SDS011;11581;51.250;6.778;2024-01-07T11:53:03;9.40;;;6.47;;
22829;SDS011;11581;51.250;6.778;2024-01-07T11:55:31;11.02;;;7.10;;
22829;SDS011;11581;51.250;6.778;2024-01-07T11:58:00;9.55;;;6.20;;
22829;SDS011;11581;51.250;6.778;2024-01-07T12:00:28;8.85;;;6.32;;
22829;SDS011;11581;51.250;6.778;2024-01-07T12:02:58;8.75;;;5.82;;
22829;SDS011;11581;51.250;6.778;2024-01-07T12:05:25;8.82;;;5.72;;
22829;SDS011;11581;51.250;6.778;2024-01-07T12:07:52;7.40;;;5.00;;
22829;SDS011;11581;51.250;6.778;2024-01-07T12:10:18;7.30;;;4.85;;
22829;SDS011;11581;51.250;6.778;2024-01-07T12:12:45;7.60;;;5.20;;
22829;SDS011;11581;51.250;6.778;2024-01-07T12:15:12;13.65;;;5.22;;
22829;SDS011;11581;51.250;6.778;2024-01-07T12:17:39;6.15;;;4.20;;
22829;SDS011;11581;51.250;6.778;2024-01-07T12:20:08;8.18;;;5.20;;
22829;SDS011;11581;51.250;6.778;2024-01-07T12:22:37;7.00;;;4.63;;
22829;SDS011;11581;51.250;6.778;2024-01-07T12:25:04;6.05;;;4.05;;
22829;SDS011;11581;51.250;6.778;2024-01-07T12:27:32;7.85;;;4.80;;
22829;SDS011;11581;51.250;6.778;2024-01-07T12:30:00;6.55;;;4.03;;
22829;SDS011;11581;51.250;6.778;2024-01-07T12:32:27;5.95;;;4.05;;
22829;SDS011;11581;51.250;6.778;2024-01-07T12:34:57;6.80;;;4.70;;
22829;SDS011;11581;51.250;6.778;2024-01-07T12:37:27;6.03;;;3.90;;
22829;SDS011;11581;51.250;6.778;2024-01-07T12:39:53;7.20;;;4.28;;
22829;SDS011;11581;51.250;6.778;2024-01-07T12:42:20;6.43;;;4.07;;
22829;SDS011;11581;51.250;6.778;2024-01-07T12:44:48;6.30;;;3.58;;
22829;SDS011;11581;51.250;6.778;2024-01-07T12:47:15;6.18;;;3.88;;
22829;SDS011;11581;51.250;6.778;2024-01-07T12:49:42;6.18;;;3.92;;
22829;SDS011;11581;51.250;6.778;2024-01-07T12:52:09;4.65;;;3.08;;
22829;SDS011;11581;51.250;6.778;2024-01-07T12:54:38;5.72;;;3.40;;
22829;SDS011;11581;51.250;6.778;2024-01-07T12:57:04;5.40;;;3.25;;
22829;SDS011;11581;51.250;6.778;2024-01-07T12:59:31;6.13;;;3.33;;
22829;SDS011;11581;51.250;6.778;2024-01-07T13:01:57;5.72;;;3.35;;
22829;SDS011;11581;51.250;6.778;2024-01-07T13:04:24;5.47;;;3.03;;
22829;SDS011;11581;51.250;6.778;2024-01-07T13:06:51;6.15;;;3.00;;
22829;SDS011;11581;51.250;6.778;2024-01-07T13:09:17;6.05;;;3.20;;
22829;SDS011;11581;51.250;6.778;2024-01-07T13:11:48;4.45;;;2.72;;
22829;SDS011;11581;51.250;6.778;2024-01-07T13:14:15;5.57;;;2.65;;
22829;SDS011;11581;51.250;6.778;2024-01-07T13:16:42;5.85;;;2.83;;
22829;SDS011;11581;51.250;6.778;2024-01-07T13:19:08;3.85;;;2.50;;
22829;SDS011;11581;51.250;6.778;2024-01-07T13:21:36;4.53;;;2.65;;
22829;SDS011;11581;51.250;6.778;2024-01-07T13:24:04;4.53;;;2.67;;
22829;SDS011;11581;51.250;6.778;2024-01-07T13:26:31;5.75;;;3.05;;
22829;SDS011;11581;51.250;6.778;2024-01-07T13:28:59;4.57;;;2.33;;
22829;SDS011;11581;51.250;6.778;2024-01-07T13:31:26;4.78;;;2.88;;
22829;SDS011;11581;51.250;6.778;2024-01-07T13:33:53;5.43;;;2.85;;
22829;SDS011;11581;51.250;6.778;2024-01-07T13:36:19;4.88;;;2.70;;
22829;SDS011;11581;51.250;6.778;2024-01-07T13:38:46;3.75;;;2.20;;
22829;SDS011;11581;51.250;6.778;2024-01-07T13:41:15;6.75;;;3.13;;
22829;SDS011;11581;51.250;6.778;2024-01-07T13:43:42;4.78;;;2.60;;
22829;SDS011;11581;51.250;6.778;2024-01-07T13:46:10;5.18;;;2.92;;
22829;SDS011;11581;51.250;6.778;2024-01-07T13:48:37;4.47;;;2.92;;
22829;SDS011;11581;51.250;6.778;2024-01-07T13:51:04;4.90;;;2.72;;
22829;SDS011;11581;51.250;6.778;2024-01-07T13:53:31;5.40;;;3.00;;
22829;SDS011;11581;51.250;6.778;2024-01-07T13:55:57;6.30;;;2.65;;
22829;SDS011;11581;51.250;6.778;2024-01-07T13:58:24;7.65;;;2.75;;
22829;SDS011;11581;51.250;6.778;2024-01-07T14:00:51;6.78;;;2.75;;
22829;SDS011;11581;51.250;6.778;2024-01-07T14:03:19;4.10;;;2.45;;
22829;SDS011;11581;51.250;6.778;2024-01-07T14:05:46;5.00;;;2.67;;
22829;SDS011;11581;51.250;6.778;2024-01-07T14:08:12;4.57;;;2.70;;
22829;SDS011;11581;51.250;6.778;2024-01-07T14:10:39;6.20;;;2.72;;
22829;SDS011;11581;51.250;6.778;2024-01-07T14:13:06;3.88;;;2.53;;
22829;SDS011;11581;51.250;6.778;2024-01-07T14:15:33;4.22;;;2.38;;
22829;SDS011;11581;51.250;6.778;2024-01-07T14:17:59;3.95;;;2.30;;
22829;SDS011;11581;51.250;6.778;2024-01-07T14:20:28;3.92;;;2.38;;
22829;SDS011;11581;51.250;6.778;2024-01-07T14:22:54;4.95;;;2.20;;
22829;SDS011;11581;51.250;6.778;2024-01-07T14:25:21;3.97;;;2.17;;
22829;SDS011;11581;51.250;6.778;2024-01-07T14:27:47;5.13;;;2.58;;
22829;SDS011;11581;51.250;6.778;2024-01-07T14:30:14;3.95;;;2.22;;
22829;SDS011;11581;51.250;6.778;2024-01-07T14:32:41;4.07;;;2.22;;
22829;SDS011;11581;51.250;6.778;2024-01-07T14:35:09;4.07;;;2.03;;
22829;SDS011;11581;51.250;6.778;2024-01-07T14:37:38;4.22;;;1.85;;
22829;SDS011;11581;51.250;6.778;2024-01-07T14:40:06;7.70;;;2.25;;